BAW54A LFPG-EGKK
Flight info
| Callsign | BAW54A |
|---|---|
| Flight time | N/A |
| Altitude | 24000 |
| Route | OPALE DCT KESAX DCT KUNAV |
| Aircraft | A20N/M-SDE2E3FGHIRWXY/LB1 |
Departure
| Time | 2026-05-08 12:26 |
|---|---|
| Airport | Charles de Gaulle International Airport (LFPG) |
Arrival
| Time | N/A |
|---|---|
| Airport | London Gatwick Airport (EGKK) |
| Time | Latitude | Longitude | Altitude | Speed | Heading |
|---|---|---|---|---|---|
| 2026-05-08 12:01 | 49.01618 | 2.53846 | 354 ft | 0 kts | 169° |
| 2026-05-08 12:14 | 49.01620 | 2.53845 | 354 ft | 2 kts | 169° |
| 2026-05-08 12:14 | 49.01636 | 2.53839 | 359 ft | 2 kts | 166° |
| 2026-05-08 12:15 | 49.01652 | 2.53833 | 358 ft | 2 kts | 161° |
| 2026-05-08 12:15 | 49.01667 | 2.53824 | 361 ft | 2 kts | 155° |
| 2026-05-08 12:15 | 49.01682 | 2.53812 | 362 ft | 2 kts | 144° |
| 2026-05-08 12:15 | 49.01690 | 2.53801 | 360 ft | 2 kts | 131° |
| 2026-05-08 12:16 | 49.01699 | 2.53772 | 356 ft | 2 kts | 82° |
| 2026-05-08 12:16 | 49.01697 | 2.53758 | 356 ft | 1 kts | 56° |
| 2026-05-08 12:16 | 49.01696 | 2.53754 | 355 ft | 0 kts | 48° |
| 2026-05-08 12:19 | 49.01707 | 2.53772 | 360 ft | 4 kts | 47° |
| 2026-05-08 12:19 | 49.01737 | 2.53819 | 357 ft | 8 kts | 47° |
| 2026-05-08 12:20 | 49.01751 | 2.53847 | 362 ft | 2 kts | 56° |
| 2026-05-08 12:20 | 49.01765 | 2.53879 | 354 ft | 5 kts | 59° |
| 2026-05-08 12:20 | 49.01790 | 2.53905 | 356 ft | 4 kts | 352° |
| 2026-05-08 12:20 | 49.01796 | 2.53878 | 357 ft | 4 kts | 281° |
| 2026-05-08 12:21 | 49.01795 | 2.53820 | 355 ft | 7 kts | 266° |
| 2026-05-08 12:21 | 49.01789 | 2.53724 | 361 ft | 11 kts | 263° |
| 2026-05-08 12:21 | 49.01781 | 2.53594 | 354 ft | 14 kts | 265° |
| 2026-05-08 12:21 | 49.01772 | 2.53435 | 358 ft | 16 kts | 265° |
| 2026-05-08 12:22 | 49.01764 | 2.53277 | 355 ft | 15 kts | 265° |
| 2026-05-08 12:22 | 49.01757 | 2.53163 | 362 ft | 10 kts | 265° |
| 2026-05-08 12:22 | 49.01750 | 2.53042 | 355 ft | 13 kts | 265° |
| 2026-05-08 12:22 | 49.01743 | 2.52887 | 362 ft | 16 kts | 265° |
| 2026-05-08 12:23 | 49.01734 | 2.52730 | 357 ft | 14 kts | 265° |
| 2026-05-08 12:23 | 49.01726 | 2.52572 | 357 ft | 15 kts | 265° |
| 2026-05-08 12:23 | 49.01718 | 2.52398 | 362 ft | 18 kts | 266° |
| 2026-05-08 12:23 | 49.01714 | 2.52232 | 362 ft | 14 kts | 269° |
| 2026-05-08 12:24 | 49.01774 | 2.52133 | 354 ft | 16 kts | 351° |
| 2026-05-08 12:24 | 49.01878 | 2.52122 | 354 ft | 12 kts | 356° |
| 2026-05-08 12:24 | 49.01966 | 2.52112 | 357 ft | 13 kts | 356° |
| 2026-05-08 12:24 | 49.02056 | 2.52103 | 354 ft | 14 kts | 356° |
| 2026-05-08 12:25 | 49.02111 | 2.52149 | 357 ft | 5 kts | 90° |
| 2026-05-08 12:25 | 49.02112 | 2.52179 | 355 ft | 1 kts | 86° |
| 2026-05-08 12:25 | 49.02113 | 2.52196 | 353 ft | 7 kts | 85° |
| 2026-05-08 12:25 | 49.02134 | 2.52601 | 360 ft | 72 kts | 85° |
| 2026-05-08 12:26 | 49.02192 | 2.53663 | 356 ft | 127 kts | 85° |
| 2026-05-08 12:26 | 49.02269 | 2.55220 | 370 ft | 165 kts | 87° |
| 2026-05-08 12:26 | 49.02348 | 2.56999 | 805 ft | 174 kts | 86° |
| 2026-05-08 12:26 | 49.02445 | 2.58798 | 1510 ft | 168 kts | 84° |
| 2026-05-08 12:27 | 49.02545 | 2.60585 | 2154 ft | 175 kts | 85° |
| 2026-05-08 12:27 | 49.02657 | 2.62580 | 2606 ft | 198 kts | 84° |
| 2026-05-08 12:27 | 49.02779 | 2.64773 | 3181 ft | 222 kts | 85° |
| 2026-05-08 12:27 | 49.02911 | 2.67247 | 3763 ft | 246 kts | 85° |
| 2026-05-08 12:28 | 49.03050 | 2.69933 | 4515 ft | 260 kts | 85° |
| 2026-05-08 12:28 | 49.03208 | 2.72706 | 5493 ft | 266 kts | 81° |
| 2026-05-08 12:28 | 49.03891 | 2.75316 | 6483 ft | 270 kts | 54° |
| 2026-05-08 12:28 | 49.05301 | 2.77213 | 7366 ft | 276 kts | 27° |
| 2026-05-08 12:29 | 49.07170 | 2.77978 | 8225 ft | 283 kts | 360° |
| 2026-05-08 12:29 | 49.09094 | 2.77397 | 9177 ft | 286 kts | 334° |
| 2026-05-08 12:29 | 49.10826 | 2.75868 | 9915 ft | 290 kts | 324° |
| 2026-05-08 12:29 | 49.12499 | 2.74078 | 10657 ft | 301 kts | 322° |
| 2026-05-08 12:30 | 49.14257 | 2.72119 | 11021 ft | 325 kts | 322° |
| 2026-05-08 12:30 | 49.16138 | 2.70026 | 11490 ft | 341 kts | 322° |
| 2026-05-08 12:30 | 49.18081 | 2.67892 | 12359 ft | 345 kts | 322° |
| 2026-05-08 12:30 | 49.20052 | 2.65745 | 13200 ft | 350 kts | 323° |
| 2026-05-08 12:31 | 49.22051 | 2.63574 | 14034 ft | 355 kts | 322° |
| 2026-05-08 12:31 | 49.24077 | 2.61377 | 14812 ft | 359 kts | 322° |
| 2026-05-08 12:31 | 49.26121 | 2.59158 | 15574 ft | 362 kts | 322° |
| 2026-05-08 12:31 | 49.28190 | 2.56906 | 16340 ft | 366 kts | 322° |
| 2026-05-08 12:32 | 49.30277 | 2.54634 | 17078 ft | 370 kts | 322° |
| 2026-05-08 12:32 | 49.32385 | 2.52334 | 17804 ft | 374 kts | 322° |
| 2026-05-08 12:32 | 49.34520 | 2.50003 | 18512 ft | 378 kts | 322° |
| 2026-05-08 12:32 | 49.36673 | 2.47650 | 18899 ft | 381 kts | 322° |
| 2026-05-08 12:33 | 49.38837 | 2.45281 | 19060 ft | 383 kts | 322° |
| 2026-05-08 12:33 | 49.41017 | 2.42893 | 19543 ft | 386 kts | 322° |
| 2026-05-08 12:33 | 49.43203 | 2.40495 | 20264 ft | 387 kts | 322° |
| 2026-05-08 12:33 | 49.45406 | 2.38075 | 20886 ft | 391 kts | 322° |
| 2026-05-08 12:34 | 49.47629 | 2.35630 | 21495 ft | 395 kts | 322° |
| 2026-05-08 12:34 | 49.49871 | 2.33161 | 22112 ft | 398 kts | 322° |
| 2026-05-08 12:34 | 49.52137 | 2.30662 | 22694 ft | 403 kts | 322° |
| 2026-05-08 12:34 | 49.54424 | 2.28138 | 23285 ft | 406 kts | 322° |
| 2026-05-08 12:35 | 49.56734 | 2.25587 | 23806 ft | 410 kts | 322° |
| 2026-05-08 12:35 | 49.59054 | 2.23020 | 24015 ft | 410 kts | 322° |
| 2026-05-08 12:35 | 49.61365 | 2.20461 | 24070 ft | 409 kts | 322° |
| 2026-05-08 12:35 | 49.63671 | 2.17904 | 24071 ft | 409 kts | 322° |
| 2026-05-08 12:36 | 49.65983 | 2.15338 | 24073 ft | 409 kts | 322° |
| 2026-05-08 12:36 | 49.68295 | 2.12769 | 24071 ft | 409 kts | 323° |
| 2026-05-08 12:36 | 49.70604 | 2.10218 | 24070 ft | 409 kts | 323° |
| 2026-05-08 12:36 | 49.72924 | 2.07659 | 24071 ft | 409 kts | 323° |
| 2026-05-08 12:37 | 49.75240 | 2.05090 | 24067 ft | 410 kts | 323° |
| 2026-05-08 12:37 | 49.77558 | 2.02506 | 24066 ft | 410 kts | 323° |
| 2026-05-08 12:37 | 49.79838 | 1.99955 | 24066 ft | 410 kts | 323° |
| 2026-05-08 12:37 | 49.82148 | 1.97366 | 24065 ft | 410 kts | 323° |
| 2026-05-08 12:38 | 49.84459 | 1.94771 | 24064 ft | 410 kts | 322° |
| 2026-05-08 12:38 | 49.86751 | 1.92195 | 24068 ft | 410 kts | 322° |
| 2026-05-08 12:38 | 49.89059 | 1.89598 | 24067 ft | 410 kts | 322° |
| 2026-05-08 12:38 | 49.91319 | 1.86900 | 24069 ft | 409 kts | 320° |
| 2026-05-08 12:39 | 49.93542 | 1.84146 | 24065 ft | 410 kts | 320° |
| 2026-05-08 12:39 | 49.95779 | 1.81397 | 24077 ft | 409 kts | 320° |
| 2026-05-08 12:39 | 49.98007 | 1.78658 | 24067 ft | 407 kts | 320° |
| 2026-05-08 12:39 | 50.00226 | 1.75923 | 24067 ft | 407 kts | 320° |
| 2026-05-08 12:40 | 50.02444 | 1.73184 | 24069 ft | 407 kts | 320° |
| 2026-05-08 12:40 | 50.04662 | 1.70439 | 24070 ft | 407 kts | 320° |
| 2026-05-08 12:40 | 50.06835 | 1.67747 | 24072 ft | 407 kts | 320° |
| 2026-05-08 12:40 | 50.09027 | 1.64949 | 24073 ft | 407 kts | 318° |
| 2026-05-08 12:41 | 50.11162 | 1.62048 | 24072 ft | 407 kts | 317° |
| 2026-05-08 12:41 | 50.13278 | 1.59123 | 24070 ft | 407 kts | 317° |
| 2026-05-08 12:41 | 50.15398 | 1.56200 | 24073 ft | 407 kts | 317° |
| 2026-05-08 12:41 | 50.17522 | 1.53285 | 24073 ft | 407 kts | 317° |
| 2026-05-08 12:42 | 50.19655 | 1.50367 | 24069 ft | 408 kts | 317° |
| 2026-05-08 12:42 | 50.21791 | 1.47451 | 24070 ft | 408 kts | 317° |
| 2026-05-08 12:42 | 50.23925 | 1.44537 | 24075 ft | 408 kts | 317° |
| 2026-05-08 12:42 | 50.26060 | 1.41619 | 23947 ft | 408 kts | 317° |
| 2026-05-08 12:43 | 50.28196 | 1.38697 | 23721 ft | 407 kts | 317° |
| 2026-05-08 12:43 | 50.30321 | 1.35785 | 23456 ft | 404 kts | 318° |
| 2026-05-08 12:43 | 50.32421 | 1.32905 | 23184 ft | 399 kts | 317° |
| 2026-05-08 12:43 | 50.34502 | 1.30045 | 22905 ft | 398 kts | 317° |
| 2026-05-08 12:44 | 50.36583 | 1.27184 | 22629 ft | 398 kts | 317° |
| 2026-05-08 12:44 | 50.38661 | 1.24322 | 22358 ft | 397 kts | 317° |
| 2026-05-08 12:44 | 50.40727 | 1.21474 | 22090 ft | 395 kts | 317° |
| 2026-05-08 12:44 | 50.42785 | 1.18634 | 21819 ft | 395 kts | 317° |
| 2026-05-08 12:45 | 50.44848 | 1.15783 | 21567 ft | 394 kts | 317° |
| 2026-05-08 12:45 | 50.46874 | 1.12979 | 21310 ft | 393 kts | 317° |
| 2026-05-08 12:45 | 50.48943 | 1.10114 | 21050 ft | 391 kts | 317° |
| 2026-05-08 12:45 | 50.50950 | 1.07328 | 20784 ft | 390 kts | 316° |
| 2026-05-08 12:46 | 50.52854 | 1.04299 | 20293 ft | 389 kts | 311° |
| 2026-05-08 12:46 | 50.54687 | 1.01190 | 19774 ft | 386 kts | 311° |
| 2026-05-08 12:46 | 50.56509 | 0.98120 | 19260 ft | 382 kts | 312° |
| 2026-05-08 12:46 | 50.58317 | 0.95077 | 18747 ft | 378 kts | 312° |
| 2026-05-08 12:47 | 50.60102 | 0.92068 | 18221 ft | 375 kts | 311° |
| 2026-05-08 12:47 | 50.61869 | 0.89085 | 17690 ft | 370 kts | 311° |
| 2026-05-08 12:47 | 50.63610 | 0.86139 | 17212 ft | 365 kts | 311° |
| 2026-05-08 12:47 | 50.65329 | 0.83227 | 16720 ft | 360 kts | 311° |
| 2026-05-08 12:48 | 50.67027 | 0.80354 | 16277 ft | 356 kts | 312° |
| 2026-05-08 12:48 | 50.68634 | 0.77346 | 16139 ft | 360 kts | 308° |
| 2026-05-08 12:48 | 50.70207 | 0.74275 | 15922 ft | 360 kts | 308° |
| 2026-05-08 12:48 | 50.71791 | 0.71192 | 15343 ft | 363 kts | 308° |
| 2026-05-08 12:49 | 50.73377 | 0.68093 | 14841 ft | 357 kts | 308° |
| 2026-05-08 12:49 | 50.74896 | 0.65118 | 14599 ft | 340 kts | 307° |
| 2026-05-08 12:49 | 50.76336 | 0.62292 | 14422 ft | 321 kts | 307° |
| 2026-05-08 12:49 | 50.77703 | 0.59602 | 14217 ft | 309 kts | 307° |
| 2026-05-08 12:50 | 50.79039 | 0.56964 | 13863 ft | 306 kts | 307° |
| 2026-05-08 12:50 | 50.80364 | 0.54346 | 13442 ft | 304 kts | 307° |
| 2026-05-08 12:50 | 50.81680 | 0.51742 | 13013 ft | 302 kts | 307° |
| 2026-05-08 12:50 | 50.82695 | 0.48881 | 12457 ft | 299 kts | 288° |
| 2026-05-08 12:51 | 50.83347 | 0.45776 | 11708 ft | 301 kts | 286° |
| 2026-05-08 12:51 | 50.84643 | 0.39522 | 10454 ft | 297 kts | 286° |
| 2026-05-08 12:51 | 50.85286 | 0.36412 | 9826 ft | 300 kts | 286° |
| 2026-05-08 12:52 | 50.85955 | 0.33251 | 9172 ft | 304 kts | 286° |
| 2026-05-08 12:52 | 50.87246 | 0.27003 | 8184 ft | 287 kts | 286° |
| 2026-05-08 12:52 | 50.87847 | 0.24097 | 8097 ft | 274 kts | 286° |
| 2026-05-08 12:53 | 50.88440 | 0.21187 | 8080 ft | 277 kts | 286° |
| 2026-05-08 12:53 | 50.89031 | 0.18298 | 8085 ft | 275 kts | 286° |
| 2026-05-08 12:53 | 50.89615 | 0.15399 | 8086 ft | 277 kts | 286° |
| 2026-05-08 12:53 | 50.90204 | 0.12502 | 8087 ft | 275 kts | 286° |
| 2026-05-08 12:54 | 50.90809 | 0.09637 | 8089 ft | 275 kts | 286° |
| 2026-05-08 12:54 | 50.91413 | 0.06751 | 8090 ft | 275 kts | 286° |
| 2026-05-08 12:54 | 50.92010 | 0.03866 | 8094 ft | 276 kts | 285° |
| 2026-05-08 12:54 | 50.92601 | 0.00974 | 8031 ft | 277 kts | 286° |
| 2026-05-08 12:55 | 50.93198 | -0.01931 | 7797 ft | 276 kts | 285° |
| 2026-05-08 12:55 | 50.93815 | -0.04818 | 7572 ft | 277 kts | 286° |
| 2026-05-08 12:55 | 50.94428 | -0.07694 | 7322 ft | 273 kts | 286° |
| 2026-05-08 12:55 | 50.95049 | -0.10536 | 7074 ft | 274 kts | 286° |
| 2026-05-08 12:56 | 50.95675 | -0.13384 | 6828 ft | 272 kts | 286° |
| 2026-05-08 12:56 | 50.96300 | -0.16211 | 6574 ft | 271 kts | 286° |
| 2026-05-08 12:56 | 50.96919 | -0.19023 | 6316 ft | 269 kts | 286° |
| 2026-05-08 12:56 | 50.97539 | -0.21848 | 5825 ft | 273 kts | 286° |
| 2026-05-08 12:57 | 50.98152 | -0.24685 | 5311 ft | 271 kts | 286° |
| 2026-05-08 12:57 | 50.98752 | -0.27505 | 4808 ft | 269 kts | 286° |
| 2026-05-08 12:57 | 50.99341 | -0.30319 | 4403 ft | 271 kts | 285° |
| 2026-05-08 12:57 | 50.99936 | -0.33169 | 4102 ft | 272 kts | 287° |
| 2026-05-08 12:58 | 51.00518 | -0.36012 | 4015 ft | 273 kts | 285° |
| 2026-05-08 12:58 | 51.01123 | -0.38878 | 3985 ft | 273 kts | 286° |
| 2026-05-08 12:58 | 51.01719 | -0.41750 | 3818 ft | 274 kts | 286° |
| 2026-05-08 12:58 | 51.02300 | -0.44624 | 3635 ft | 271 kts | 286° |
| 2026-05-08 12:59 | 51.02862 | -0.47444 | 3385 ft | 269 kts | 286° |
| 2026-05-08 12:59 | 51.03417 | -0.50210 | 3120 ft | 257 kts | 286° |
| 2026-05-08 12:59 | 51.03934 | -0.52845 | 3002 ft | 241 kts | 286° |
| 2026-05-08 12:59 | 51.04448 | -0.55366 | 3005 ft | 242 kts | 291° |
| 2026-05-08 13:00 | 51.05443 | -0.57490 | 3001 ft | 242 kts | 323° |
| 2026-05-08 13:00 | 51.06953 | -0.58371 | 3005 ft | 226 kts | 4° |
| 2026-05-08 13:00 | 51.08312 | -0.57576 | 2999 ft | 200 kts | 50° |
| 2026-05-08 13:00 | 51.08961 | -0.55747 | 3015 ft | 193 kts | 76° |
| 2026-05-08 13:01 | 51.09365 | -0.53710 | 3013 ft | 191 kts | 77° |
| 2026-05-08 13:01 | 51.09736 | -0.51699 | 3010 ft | 189 kts | 78° |
| 2026-05-08 13:01 | 51.10103 | -0.49676 | 3015 ft | 191 kts | 78° |
| 2026-05-08 13:01 | 51.10457 | -0.47673 | 2994 ft | 181 kts | 78° |
| 2026-05-08 13:02 | 51.10679 | -0.46402 | 3023 ft | 182 kts | 79° |